Terminal Aerodrome Forecast
Issued by NWS Wilmington, NC

Home | Current Version | Previous Version | Text Only | Print | Product List | Glossary On
Versions: 1 2 3 4 5 6 7 8 9 10 11 12 13 14 15 16 17
000
FTUS42 KILM 271133
TAFFLO
TAF
KFLO 271133Z 2712/2812 VRB03KT P6SM BKN050
     FM271300 18004KT P6SM BKN050
     FM271800 21007KT P6SM VCSH BKN035
     FM280000 20005KT P6SM SCT040
     FM280500 19004KT P6SM BKN090=

USA.gov is the U.S. government's official web portal to all federal, state and local government web resources and services.